Kenwood, Indiana
Current Conditions -  °F | °C
As of 11:53 PM on Saturday 22 Nov 2014 (Local Time) from KHUF Reporting Station
Light Rain Light Rain  
Wind Chill: 45°   Ceiling: 6000
Heat Index: 48°   Visibility: 10mi
Dew Point: 44°   Wind: 7mph
Humidity: 86%   Direction: 120°ESE
Pressure: 29.98"   Gusts: NA
Location:  39.5107°N, 87.4772°W
Report Text: KHUF 230453Z 12006KT 10SM -RA OVC060 09/07 A2998 RMK AO2 SLP152 P0001 T00890067 401390017
Loading
Personal Weather Stations






























Interactive Weather Map New forecast layout! Learn more

10-Day Weather Forecast

Advertisements
Track Severe Weather on mobile